sensor_id;sensor_type;location;lat;lon;timestamp;P1;durP1;ratioP1;P2;durP2;ratioP2
46717;SDS011;32448;44.960;-0.698;2022-12-20T00:01:33;10.43;;;3.72;;
46717;SDS011;32448;44.960;-0.698;2022-12-20T00:04:02;15.35;;;4.50;;
46717;SDS011;32448;44.960;-0.698;2022-12-20T00:06:34;11.77;;;3.38;;
46717;SDS011;32448;44.960;-0.698;2022-12-20T00:09:04;13.63;;;3.60;;
46717;SDS011;32448;44.960;-0.698;2022-12-20T00:11:33;13.57;;;3.75;;
46717;SDS011;32448;44.960;-0.698;2022-12-20T00:14:02;14.55;;;3.97;;
46717;SDS011;32448;44.960;-0.698;2022-12-20T00:16:29;12.82;;;3.72;;
46717;SDS011;32448;44.960;-0.698;2022-12-20T00:18:58;11.25;;;3.55;;
46717;SDS011;32448;44.960;-0.698;2022-12-20T00:21:28;13.60;;;3.83;;
46717;SDS011;32448;44.960;-0.698;2022-12-20T00:23:57;10.57;;;3.88;;
46717;SDS011;32448;44.960;-0.698;2022-12-20T00:26:28;10.32;;;3.55;;
46717;SDS011;32448;44.960;-0.698;2022-12-20T00:28:57;13.32;;;3.63;;
46717;SDS011;32448;44.960;-0.698;2022-12-20T00:31:26;14.93;;;3.30;;
46717;SDS011;32448;44.960;-0.698;2022-12-20T00:33:56;11.75;;;4.40;;
46717;SDS011;32448;44.960;-0.698;2022-12-20T00:36:26;12.30;;;3.58;;
46717;SDS011;32448;44.960;-0.698;2022-12-20T00:38:55;15.07;;;4.10;;
46717;SDS011;32448;44.960;-0.698;2022-12-20T00:41:25;12.57;;;4.18;;
46717;SDS011;32448;44.960;-0.698;2022-12-20T00:43:55;7.80;;;3.20;;
46717;SDS011;32448;44.960;-0.698;2022-12-20T00:46:23;8.85;;;3.42;;
46717;SDS011;32448;44.960;-0.698;2022-12-20T00:48:51;16.85;;;4.25;;
46717;SDS011;32448;44.960;-0.698;2022-12-20T00:51:22;11.65;;;3.05;;
46717;SDS011;32448;44.960;-0.698;2022-12-20T00:53:52;12.88;;;3.63;;
46717;SDS011;32448;44.960;-0.698;2022-12-20T00:56:20;16.05;;;3.97;;
46717;SDS011;32448;44.960;-0.698;2022-12-20T00:58:48;14.65;;;3.40;;
46717;SDS011;32448;44.960;-0.698;2022-12-20T01:01:20;19.73;;;4.13;;
46717;SDS011;32448;44.960;-0.698;2022-12-20T01:03:51;8.40;;;3.40;;
46717;SDS011;32448;44.960;-0.698;2022-12-20T01:06:20;11.88;;;3.38;;
46717;SDS011;32448;44.960;-0.698;2022-12-20T01:08:48;14.15;;;3.83;;
46717;SDS011;32448;44.960;-0.698;2022-12-20T01:11:17;9.15;;;3.22;;
46717;SDS011;32448;44.960;-0.698;2022-12-20T01:13:47;11.18;;;3.25;;
46717;SDS011;32448;44.960;-0.698;2022-12-20T01:16:21;16.88;;;3.55;;
46717;SDS011;32448;44.960;-0.698;2022-12-20T01:18:59;16.17;;;4.53;;
46717;SDS011;32448;44.960;-0.698;2022-12-20T01:21:26;11.55;;;3.38;;
46717;SDS011;32448;44.960;-0.698;2022-12-20T01:23:58;15.70;;;3.13;;
46717;SDS011;32448;44.960;-0.698;2022-12-20T01:26:26;16.25;;;4.18;;
46717;SDS011;32448;44.960;-0.698;2022-12-20T01:29:00;10.85;;;3.30;;
46717;SDS011;32448;44.960;-0.698;2022-12-20T01:31:30;13.38;;;3.22;;
46717;SDS011;32448;44.960;-0.698;2022-12-20T01:33:58;10.60;;;3.47;;
46717;SDS011;32448;44.960;-0.698;2022-12-20T01:36:28;10.82;;;3.38;;
46717;SDS011;32448;44.960;-0.698;2022-12-20T01:39:03;15.98;;;3.45;;
46717;SDS011;32448;44.960;-0.698;2022-12-20T01:41:33;13.05;;;4.28;;
46717;SDS011;32448;44.960;-0.698;2022-12-20T01:44:05;13.15;;;3.45;;
46717;SDS011;32448;44.960;-0.698;2022-12-20T01:46:52;13.60;;;3.35;;
46717;SDS011;32448;44.960;-0.698;2022-12-20T01:49:21;15.55;;;4.15;;
46717;SDS011;32448;44.960;-0.698;2022-12-20T01:54:35;16.77;;;3.03;;
46717;SDS011;32448;44.960;-0.698;2022-12-20T01:57:05;12.63;;;2.97;;
46717;SDS011;32448;44.960;-0.698;2022-12-20T01:59:43;10.27;;;2.92;;
46717;SDS011;32448;44.960;-0.698;2022-12-20T02:02:14;13.95;;;3.85;;
46717;SDS011;32448;44.960;-0.698;2022-12-20T02:04:42;10.50;;;3.28;;
46717;SDS011;32448;44.960;-0.698;2022-12-20T02:07:11;12.38;;;2.80;;
46717;SDS011;32448;44.960;-0.698;2022-12-20T02:09:44;11.50;;;3.72;;
46717;SDS011;32448;44.960;-0.698;2022-12-20T02:12:14;6.63;;;2.90;;
46717;SDS011;32448;44.960;-0.698;2022-12-20T02:20:04;14.45;;;3.38;;
46717;SDS011;32448;44.960;-0.698;2022-12-20T02:31:42;7.93;;;3.00;;
46717;SDS011;32448;44.960;-0.698;2022-12-20T02:34:25;10.00;;;3.05;;
46717;SDS011;32448;44.960;-0.698;2022-12-20T02:36:54;14.80;;;4.13;;
46717;SDS011;32448;44.960;-0.698;2022-12-20T02:39:22;13.27;;;3.88;;
46717;SDS011;32448;44.960;-0.698;2022-12-20T02:41:54;14.52;;;3.72;;
46717;SDS011;32448;44.960;-0.698;2022-12-20T02:44:27;12.52;;;2.92;;
46717;SDS011;32448;44.960;-0.698;2022-12-20T02:47:19;13.68;;;3.70;;
46717;SDS011;32448;44.960;-0.698;2022-12-20T02:49:52;10.80;;;3.35;;
46717;SDS011;32448;44.960;-0.698;2022-12-20T02:52:22;13.70;;;4.25;;
46717;SDS011;32448;44.960;-0.698;2022-12-20T02:54:53;10.45;;;3.20;;
46717;SDS011;32448;44.960;-0.698;2022-12-20T02:57:27;11.88;;;3.55;;
46717;SDS011;32448;44.960;-0.698;2022-12-20T03:00:13;12.20;;;3.90;;
46717;SDS011;32448;44.960;-0.698;2022-12-20T03:02:44;17.10;;;3.40;;
46717;SDS011;32448;44.960;-0.698;2022-12-20T03:05:37;12.50;;;3.42;;
46717;SDS011;32448;44.960;-0.698;2022-12-20T03:08:12;9.80;;;3.20;;
46717;SDS011;32448;44.960;-0.698;2022-12-20T03:10:39;15.45;;;3.70;;
46717;SDS011;32448;44.960;-0.698;2022-12-20T03:13:07;13.85;;;3.20;;
46717;SDS011;32448;44.960;-0.698;2022-12-20T03:15:40;8.82;;;3.70;;
46717;SDS011;32448;44.960;-0.698;2022-12-20T03:18:08;11.75;;;3.40;;
46717;SDS011;32448;44.960;-0.698;2022-12-20T03:20:35;13.77;;;3.78;;
46717;SDS011;32448;44.960;-0.698;2022-12-20T03:23:03;13.88;;;4.45;;
46717;SDS011;32448;44.960;-0.698;2022-12-20T03:25:32;11.85;;;3.25;;
46717;SDS011;32448;44.960;-0.698;2022-12-20T03:28:01;8.85;;;3.30;;
46717;SDS011;32448;44.960;-0.698;2022-12-20T03:30:28;13.82;;;3.30;;
46717;SDS011;32448;44.960;-0.698;2022-12-20T03:32:56;13.38;;;3.78;;
46717;SDS011;32448;44.960;-0.698;2022-12-20T03:35:24;13.93;;;3.95;;
46717;SDS011;32448;44.960;-0.698;2022-12-20T03:37:51;11.93;;;3.72;;
46717;SDS011;32448;44.960;-0.698;2022-12-20T03:40:19;12.32;;;4.03;;
46717;SDS011;32448;44.960;-0.698;2022-12-20T03:42:46;16.40;;;3.40;;
46717;SDS011;32448;44.960;-0.698;2022-12-20T03:45:13;14.27;;;3.50;;
46717;SDS011;32448;44.960;-0.698;2022-12-20T03:47:41;10.07;;;3.53;;
46717;SDS011;32448;44.960;-0.698;2022-12-20T03:50:09;12.52;;;3.75;;
46717;SDS011;32448;44.960;-0.698;2022-12-20T03:52:36;15.25;;;3.38;;
46717;SDS011;32448;44.960;-0.698;2022-12-20T03:55:04;13.05;;;3.42;;
46717;SDS011;32448;44.960;-0.698;2022-12-20T03:57:38;12.10;;;3.63;;
46717;SDS011;32448;44.960;-0.698;2022-12-20T04:00:17;14.93;;;4.10;;
46717;SDS011;32448;44.960;-0.698;2022-12-20T04:02:50;14.60;;;3.60;;
46717;SDS011;32448;44.960;-0.698;2022-12-20T04:05:19;13.63;;;3.33;;
46717;SDS011;32448;44.960;-0.698;2022-12-20T04:07:47;14.52;;;3.40;;
46717;SDS011;32448;44.960;-0.698;2022-12-20T04:10:14;10.45;;;3.30;;
46717;SDS011;32448;44.960;-0.698;2022-12-20T04:12:41;10.48;;;3.42;;
46717;SDS011;32448;44.960;-0.698;2022-12-20T04:15:11;9.77;;;2.83;;
46717;SDS011;32448;44.960;-0.698;2022-12-20T04:17:40;11.27;;;3.20;;
46717;SDS011;32448;44.960;-0.698;2022-12-20T04:20:09;9.63;;;3.10;;
46717;SDS011;32448;44.960;-0.698;2022-12-20T04:22:55;9.60;;;3.00;;
46717;SDS011;32448;44.960;-0.698;2022-12-20T04:25:23;11.57;;;3.22;;
46717;SDS011;32448;44.960;-0.698;2022-12-20T04:27:53;12.50;;;3.60;;
46717;SDS011;32448;44.960;-0.698;2022-12-20T04:30:20;10.20;;;3.83;;
46717;SDS011;32448;44.960;-0.698;2022-12-20T04:32:48;8.13;;;3.05;;
46717;SDS011;32448;44.960;-0.698;2022-12-20T04:35:21;11.57;;;3.47;;
46717;SDS011;32448;44.960;-0.698;2022-12-20T04:37:49;8.02;;;3.40;;
46717;SDS011;32448;44.960;-0.698;2022-12-20T04:40:16;12.57;;;3.33;;
46717;SDS011;32448;44.960;-0.698;2022-12-20T04:42:53;12.25;;;3.35;;
46717;SDS011;32448;44.960;-0.698;2022-12-20T04:45:21;7.90;;;3.13;;
46717;SDS011;32448;44.960;-0.698;2022-12-20T04:47:50;12.40;;;3.65;;
46717;SDS011;32448;44.960;-0.698;2022-12-20T04:52:51;14.95;;;3.20;;
46717;SDS011;32448;44.960;-0.698;2022-12-20T04:55:38;6.40;;;3.10;;
46717;SDS011;32448;44.960;-0.698;2022-12-20T04:58:06;14.50;;;3.65;;
46717;SDS011;32448;44.960;-0.698;2022-12-20T05:00:37;8.43;;;3.22;;
46717;SDS011;32448;44.960;-0.698;2022-12-20T05:03:19;14.40;;;3.75;;
46717;SDS011;32448;44.960;-0.698;2022-12-20T05:05:47;15.88;;;3.78;;
46717;SDS011;32448;44.960;-0.698;2022-12-20T05:08:15;10.73;;;3.85;;
46717;SDS011;32448;44.960;-0.698;2022-12-20T05:10:43;11.45;;;4.22;;
46717;SDS011;32448;44.960;-0.698;2022-12-20T05:13:12;11.07;;;4.05;;
46717;SDS011;32448;44.960;-0.698;2022-12-20T05:15:42;15.40;;;4.38;;
46717;SDS011;32448;44.960;-0.698;2022-12-20T05:18:12;13.85;;;4.90;;
46717;SDS011;32448;44.960;-0.698;2022-12-20T05:20:49;12.25;;;5.47;;
46717;SDS011;32448;44.960;-0.698;2022-12-20T05:23:38;19.23;;;7.60;;
46717;SDS011;32448;44.960;-0.698;2022-12-20T05:26:26;17.80;;;6.55;;
46717;SDS011;32448;44.960;-0.698;2022-12-20T05:28:57;16.55;;;6.50;;
46717;SDS011;32448;44.960;-0.698;2022-12-20T05:31:25;15.25;;;6.10;;
46717;SDS011;32448;44.960;-0.698;2022-12-20T05:33:53;20.17;;;6.60;;
46717;SDS011;32448;44.960;-0.698;2022-12-20T05:36:24;16.63;;;7.03;;
46717;SDS011;32448;44.960;-0.698;2022-12-20T05:38:53;21.88;;;7.78;;
46717;SDS011;32448;44.960;-0.698;2022-12-20T05:41:30;18.98;;;6.47;;
46717;SDS011;32448;44.960;-0.698;2022-12-20T05:43:59;11.77;;;5.90;;
46717;SDS011;32448;44.960;-0.698;2022-12-20T05:46:28;17.10;;;6.25;;
46717;SDS011;32448;44.960;-0.698;2022-12-20T05:49:00;19.50;;;6.57;;
46717;SDS011;32448;44.960;-0.698;2022-12-20T05:51:28;11.98;;;5.22;;
46717;SDS011;32448;44.960;-0.698;2022-12-20T05:54:00;13.00;;;5.22;;
46717;SDS011;32448;44.960;-0.698;2022-12-20T05:56:39;12.15;;;4.50;;
46717;SDS011;32448;44.960;-0.698;2022-12-20T05:59:07;14.40;;;4.85;;
46717;SDS011;32448;44.960;-0.698;2022-12-20T06:01:36;11.23;;;5.65;;
46717;SDS011;32448;44.960;-0.698;2022-12-20T06:04:04;9.88;;;4.15;;
46717;SDS011;32448;44.960;-0.698;2022-12-20T06:06:32;15.55;;;4.32;;
46717;SDS011;32448;44.960;-0.698;2022-12-20T06:08:59;11.18;;;3.90;;
46717;SDS011;32448;44.960;-0.698;2022-12-20T06:11:36;9.70;;;3.90;;
46717;SDS011;32448;44.960;-0.698;2022-12-20T06:14:10;15.95;;;4.78;;
46717;SDS011;32448;44.960;-0.698;2022-12-20T06:16:42;9.70;;;3.80;;
46717;SDS011;32448;44.960;-0.698;2022-12-20T06:19:11;11.25;;;3.95;;
46717;SDS011;32448;44.960;-0.698;2022-12-20T06:21:47;10.63;;;4.28;;
46717;SDS011;32448;44.960;-0.698;2022-12-20T06:24:18;10.45;;;4.05;;
46717;SDS011;32448;44.960;-0.698;2022-12-20T06:26:46;9.43;;;3.63;;
46717;SDS011;32448;44.960;-0.698;2022-12-20T06:29:16;6.65;;;3.22;;
46717;SDS011;32448;44.960;-0.698;2022-12-20T06:31:50;10.05;;;3.78;;
46717;SDS011;32448;44.960;-0.698;2022-12-20T06:34:18;8.35;;;3.90;;
46717;SDS011;32448;44.960;-0.698;2022-12-20T06:36:47;11.50;;;4.13;;
46717;SDS011;32448;44.960;-0.698;2022-12-20T06:39:19;14.15;;;3.97;;
46717;SDS011;32448;44.960;-0.698;2022-12-20T06:41:54;8.75;;;3.20;;
46717;SDS011;32448;44.960;-0.698;2022-12-20T06:44:21;9.73;;;3.75;;
46717;SDS011;32448;44.960;-0.698;2022-12-20T06:46:49;8.23;;;3.80;;
46717;SDS011;32448;44.960;-0.698;2022-12-20T06:49:17;9.93;;;3.72;;
46717;SDS011;32448;44.960;-0.698;2022-12-20T06:51:45;5.88;;;2.92;;
46717;SDS011;32448;44.960;-0.698;2022-12-20T06:54:14;11.40;;;3.03;;
46717;SDS011;32448;44.960;-0.698;2022-12-20T06:56:41;9.20;;;3.45;;
46717;SDS011;32448;44.960;-0.698;2022-12-20T06:59:11;8.07;;;3.45;;
46717;SDS011;32448;44.960;-0.698;2022-12-20T07:01:38;11.20;;;3.10;;
46717;SDS011;32448;44.960;-0.698;2022-12-20T07:04:05;9.45;;;3.20;;
46717;SDS011;32448;44.960;-0.698;2022-12-20T07:06:33;15.05;;;3.20;;
46717;SDS011;32448;44.960;-0.698;2022-12-20T07:09:01;13.50;;;3.40;;
46717;SDS011;32448;44.960;-0.698;2022-12-20T07:11:28;13.38;;;3.40;;
46717;SDS011;32448;44.960;-0.698;2022-12-20T07:13:56;7.60;;;3.80;;
46717;SDS011;32448;44.960;-0.698;2022-12-20T07:16:24;14.30;;;3.53;;
46717;SDS011;32448;44.960;-0.698;2022-12-20T07:18:51;57.30;;;16.30;;
46717;SDS011;32448;44.960;-0.698;2022-12-20T07:21:19;25.65;;;8.52;;
46717;SDS011;32448;44.960;-0.698;2022-12-20T07:23:47;22.02;;;7.35;;
46717;SDS011;32448;44.960;-0.698;2022-12-20T07:26:14;15.63;;;4.47;;
46717;SDS011;32448;44.960;-0.698;2022-12-20T07:28:42;11.57;;;4.32;;
46717;SDS011;32448;44.960;-0.698;2022-12-20T07:31:09;11.07;;;4.03;;
46717;SDS011;32448;44.960;-0.698;2022-12-20T07:33:37;16.17;;;4.13;;
46717;SDS011;32448;44.960;-0.698;2022-12-20T07:36:06;12.05;;;4.78;;
46717;SDS011;32448;44.960;-0.698;2022-12-20T07:38:37;10.45;;;4.05;;
46717;SDS011;32448;44.960;-0.698;2022-12-20T07:41:08;7.55;;;3.22;;
46717;SDS011;32448;44.960;-0.698;2022-12-20T07:43:36;9.25;;;3.63;;
46717;SDS011;32448;44.960;-0.698;2022-12-20T07:46:05;9.98;;;3.83;;
46717;SDS011;32448;44.960;-0.698;2022-12-20T07:48:33;12.77;;;3.47;;
46717;SDS011;32448;44.960;-0.698;2022-12-20T07:51:20;8.00;;;3.17;;
46717;SDS011;32448;44.960;-0.698;2022-12-20T07:54:04;9.15;;;3.50;;
46717;SDS011;32448;44.960;-0.698;2022-12-20T07:56:37;11.55;;;3.45;;
46717;SDS011;32448;44.960;-0.698;2022-12-20T07:59:09;28.90;;;7.95;;
46717;SDS011;32448;44.960;-0.698;2022-12-20T08:01:42;60.70;;;16.92;;
46717;SDS011;32448;44.960;-0.698;2022-12-20T08:04:12;48.22;;;12.95;;
46717;SDS011;32448;44.960;-0.698;2022-12-20T08:06:43;26.70;;;8.03;;
46717;SDS011;32448;44.960;-0.698;2022-12-20T08:09:12;14.05;;;5.30;;
46717;SDS011;32448;44.960;-0.698;2022-12-20T08:11:42;12.35;;;4.38;;
46717;SDS011;32448;44.960;-0.698;2022-12-20T08:14:12;8.27;;;3.60;;
46717;SDS011;32448;44.960;-0.698;2022-12-20T08:16:41;10.70;;;3.95;;
46717;SDS011;32448;44.960;-0.698;2022-12-20T08:19:13;9.27;;;3.70;;
46717;SDS011;32448;44.960;-0.698;2022-12-20T08:21:42;8.75;;;4.20;;
46717;SDS011;32448;44.960;-0.698;2022-12-20T08:24:09;8.43;;;3.47;;
46717;SDS011;32448;44.960;-0.698;2022-12-20T08:26:38;12.25;;;3.55;;
46717;SDS011;32448;44.960;-0.698;2022-12-20T08:29:06;8.52;;;3.45;;
46717;SDS011;32448;44.960;-0.698;2022-12-20T08:31:38;11.30;;;3.72;;
46717;SDS011;32448;44.960;-0.698;2022-12-20T08:34:16;8.02;;;2.75;;
46717;SDS011;32448;44.960;-0.698;2022-12-20T08:36:44;5.32;;;2.92;;
46717;SDS011;32448;44.960;-0.698;2022-12-20T08:39:11;8.07;;;2.97;;
46717;SDS011;32448;44.960;-0.698;2022-12-20T08:41:39;5.15;;;2.90;;
46717;SDS011;32448;44.960;-0.698;2022-12-20T08:44:06;9.43;;;3.40;;
46717;SDS011;32448;44.960;-0.698;2022-12-20T08:46:35;10.60;;;3.60;;
46717;SDS011;32448;44.960;-0.698;2022-12-20T08:49:03;8.57;;;3.00;;
46717;SDS011;32448;44.960;-0.698;2022-12-20T08:51:31;5.47;;;2.83;;
46717;SDS011;32448;44.960;-0.698;2022-12-20T08:53:59;10.90;;;3.58;;
46717;SDS011;32448;44.960;-0.698;2022-12-20T08:56:28;9.55;;;3.65;;
46717;SDS011;32448;44.960;-0.698;2022-12-20T08:58:55;13.98;;;4.13;;
46717;SDS011;32448;44.960;-0.698;2022-12-20T09:01:23;12.55;;;5.07;;
46717;SDS011;32448;44.960;-0.698;2022-12-20T09:03:52;14.27;;;4.88;;
46717;SDS011;32448;44.960;-0.698;2022-12-20T09:06:20;10.13;;;5.38;;
46717;SDS011;32448;44.960;-0.698;2022-12-20T09:08:49;11.57;;;5.68;;
46717;SDS011;32448;44.960;-0.698;2022-12-20T09:11:21;11.25;;;5.85;;
46717;SDS011;32448;44.960;-0.698;2022-12-20T09:13:52;8.18;;;5.63;;
46717;SDS011;32448;44.960;-0.698;2022-12-20T09:16:25;14.52;;;5.35;;
46717;SDS011;32448;44.960;-0.698;2022-12-20T09:18:55;15.27;;;6.23;;
46717;SDS011;32448;44.960;-0.698;2022-12-20T09:21:31;10.75;;;5.22;;
46717;SDS011;32448;44.960;-0.698;2022-12-20T09:23:59;12.18;;;5.47;;
46717;SDS011;32448;44.960;-0.698;2022-12-20T09:26:27;14.45;;;5.80;;
46717;SDS011;32448;44.960;-0.698;2022-12-20T09:28:55;11.43;;;5.95;;
46717;SDS011;32448;44.960;-0.698;2022-12-20T09:31:22;16.95;;;6.15;;
46717;SDS011;32448;44.960;-0.698;2022-12-20T09:33:52;13.15;;;4.68;;
46717;SDS011;32448;44.960;-0.698;2022-12-20T09:36:22;9.13;;;4.72;;
46717;SDS011;32448;44.960;-0.698;2022-12-20T09:38:50;8.43;;;3.83;;
46717;SDS011;32448;44.960;-0.698;2022-12-20T09:41:26;7.35;;;4.35;;
46717;SDS011;32448;44.960;-0.698;2022-12-20T09:43:58;7.85;;;4.15;;
46717;SDS011;32448;44.960;-0.698;2022-12-20T09:46:32;11.20;;;3.83;;
46717;SDS011;32448;44.960;-0.698;2022-12-20T09:49:01;9.82;;;4.05;;
46717;SDS011;32448;44.960;-0.698;2022-12-20T09:51:34;5.90;;;3.30;;
46717;SDS011;32448;44.960;-0.698;2022-12-20T09:59:28;9.07;;;4.25;;
46717;SDS011;32448;44.960;-0.698;2022-12-20T10:02:12;9.80;;;4.70;;
46717;SDS011;32448;44.960;-0.698;2022-12-20T10:05:04;7.80;;;3.88;;
46717;SDS011;32448;44.960;-0.698;2022-12-20T10:13:21;6.82;;;3.40;;
46717;SDS011;32448;44.960;-0.698;2022-12-20T10:21:32;11.07;;;3.38;;
46717;SDS011;32448;44.960;-0.698;2022-12-20T10:24:18;9.05;;;3.30;;
46717;SDS011;32448;44.960;-0.698;2022-12-20T10:26:57;9.70;;;3.85;;
46717;SDS011;32448;44.960;-0.698;2022-12-20T10:29:38;6.00;;;3.08;;
46717;SDS011;32448;44.960;-0.698;2022-12-20T10:32:14;7.65;;;3.38;;
46717;SDS011;32448;44.960;-0.698;2022-12-20T10:34:55;7.78;;;3.47;;
46717;SDS011;32448;44.960;-0.698;2022-12-20T10:37:26;6.00;;;3.00;;
46717;SDS011;32448;44.960;-0.698;2022-12-20T10:39:53;7.13;;;3.10;;
46717;SDS011;32448;44.960;-0.698;2022-12-20T10:42:30;5.10;;;2.85;;
46717;SDS011;32448;44.960;-0.698;2022-12-20T10:47:44;9.82;;;3.97;;
46717;SDS011;32448;44.960;-0.698;2022-12-20T10:50:16;12.32;;;4.07;;
46717;SDS011;32448;44.960;-0.698;2022-12-20T10:55:32;8.07;;;2.85;;
46717;SDS011;32448;44.960;-0.698;2022-12-20T11:00:42;7.53;;;3.63;;
46717;SDS011;32448;44.960;-0.698;2022-12-20T11:03:16;6.93;;;3.35;;
46717;SDS011;32448;44.960;-0.698;2022-12-20T11:05:52;10.57;;;3.53;;
46717;SDS011;32448;44.960;-0.698;2022-12-20T11:08:25;9.57;;;3.72;;
46717;SDS011;32448;44.960;-0.698;2022-12-20T11:11:15;8.10;;;3.20;;
46717;SDS011;32448;44.960;-0.698;2022-12-20T11:13:48;4.72;;;2.47;;
46717;SDS011;32448;44.960;-0.698;2022-12-20T11:16:51;7.88;;;2.90;;
46717;SDS011;32448;44.960;-0.698;2022-12-20T11:20:02;4.30;;;2.55;;
46717;SDS011;32448;44.960;-0.698;2022-12-20T11:28:20;5.03;;;2.70;;
46717;SDS011;32448;44.960;-0.698;2022-12-20T11:50:56;15.02;;;6.60;;
46717;SDS011;32448;44.960;-0.698;2022-12-20T11:55:57;12.45;;;5.32;;
46717;SDS011;32448;44.960;-0.698;2022-12-20T11:58:33;8.32;;;4.28;;
46717;SDS011;32448;44.960;-0.698;2022-12-20T12:01:28;27.25;;;10.65;;
46717;SDS011;32448;44.960;-0.698;2022-12-20T12:04:12;7.00;;;3.45;;
46717;SDS011;32448;44.960;-0.698;2022-12-20T12:06:47;17.83;;;8.88;;
46717;SDS011;32448;44.960;-0.698;2022-12-20T12:09:32;7.68;;;4.25;;
46717;SDS011;32448;44.960;-0.698;2022-12-20T12:12:13;11.80;;;5.82;;
46717;SDS011;32448;44.960;-0.698;2022-12-20T12:15:00;7.32;;;2.75;;
46717;SDS011;32448;44.960;-0.698;2022-12-20T12:17:40;15.43;;;8.43;;
46717;SDS011;32448;44.960;-0.698;2022-12-20T12:20:30;5.68;;;3.50;;
46717;SDS011;32448;44.960;-0.698;2022-12-20T12:23:16;5.45;;;2.47;;
46717;SDS011;32448;44.960;-0.698;2022-12-20T12:26:01;3.55;;;2.38;;
46717;SDS011;32448;44.960;-0.698;2022-12-20T12:28:39;3.35;;;2.22;;
46717;SDS011;32448;44.960;-0.698;2022-12-20T12:31:07;4.05;;;2.40;;
46717;SDS011;32448;44.960;-0.698;2022-12-20T12:33:42;5.05;;;1.88;;
46717;SDS011;32448;44.960;-0.698;2022-12-20T12:45:20;3.33;;;1.92;;
46717;SDS011;32448;44.960;-0.698;2022-12-20T12:48:02;7.55;;;1.90;;
46717;SDS011;32448;44.960;-0.698;2022-12-20T12:50:37;5.43;;;2.25;;
46717;SDS011;32448;44.960;-0.698;2022-12-20T12:53:12;10.57;;;2.40;;
46717;SDS011;32448;44.960;-0.698;2022-12-20T12:55:45;4.43;;;1.90;;
46717;SDS011;32448;44.960;-0.698;2022-12-20T13:11:32;7.07;;;1.60;;
46717;SDS011;32448;44.960;-0.698;2022-12-20T13:19:39;7.00;;;2.78;;
46717;SDS011;32448;44.960;-0.698;2022-12-20T13:22:20;7.30;;;3.47;;
46717;SDS011;32448;44.960;-0.698;2022-12-20T13:27:26;10.73;;;2.50;;
46717;SDS011;32448;44.960;-0.698;2022-12-20T13:45:44;5.38;;;1.92;;
46717;SDS011;32448;44.960;-0.698;2022-12-20T13:48:14;5.55;;;2.10;;
46717;SDS011;32448;44.960;-0.698;2022-12-20T13:50:48;5.97;;;2.20;;
46717;SDS011;32448;44.960;-0.698;2022-12-20T13:53:19;3.55;;;1.80;;
46717;SDS011;32448;44.960;-0.698;2022-12-20T13:55:51;2.88;;;1.95;;
46717;SDS011;32448;44.960;-0.698;2022-12-20T14:00:53;5.03;;;1.90;;
46717;SDS011;32448;44.960;-0.698;2022-12-20T14:03:29;4.65;;;2.00;;
46717;SDS011;32448;44.960;-0.698;2022-12-20T14:05:59;5.03;;;2.15;;
46717;SDS011;32448;44.960;-0.698;2022-12-20T14:08:33;10.27;;;3.60;;
46717;SDS011;32448;44.960;-0.698;2022-12-20T14:11:11;5.78;;;2.70;;
46717;SDS011;32448;44.960;-0.698;2022-12-20T14:13:41;4.90;;;2.10;;
46717;SDS011;32448;44.960;-0.698;2022-12-20T14:16:15;5.43;;;2.08;;
46717;SDS011;32448;44.960;-0.698;2022-12-20T14:19:10;3.55;;;2.10;;
46717;SDS011;32448;44.960;-0.698;2022-12-20T14:21:42;4.38;;;2.20;;
46717;SDS011;32448;44.960;-0.698;2022-12-20T14:24:19;5.95;;;2.22;;
46717;SDS011;32448;44.960;-0.698;2022-12-20T14:26:51;6.25;;;2.00;;
46717;SDS011;32448;44.960;-0.698;2022-12-20T14:29:23;4.38;;;2.00;;
46717;SDS011;32448;44.960;-0.698;2022-12-20T14:31:56;6.43;;;2.80;;
46717;SDS011;32448;44.960;-0.698;2022-12-20T14:34:28;7.25;;;2.35;;
46717;SDS011;32448;44.960;-0.698;2022-12-20T14:39:56;6.22;;;2.05;;
46717;SDS011;32448;44.960;-0.698;2022-12-20T14:42:44;7.03;;;2.83;;
46717;SDS011;32448;44.960;-0.698;2022-12-20T14:50:24;7.63;;;2.50;;
46717;SDS011;32448;44.960;-0.698;2022-12-20T14:52:55;6.35;;;3.67;;
46717;SDS011;32448;44.960;-0.698;2022-12-20T14:55:32;5.22;;;2.38;;
46717;SDS011;32448;44.960;-0.698;2022-12-20T15:00:56;9.90;;;3.50;;
46717;SDS011;32448;44.960;-0.698;2022-12-20T15:03:26;6.33;;;2.50;;
46717;SDS011;32448;44.960;-0.698;2022-12-20T15:05:55;10.13;;;2.60;;
46717;SDS011;32448;44.960;-0.698;2022-12-20T15:08:31;6.80;;;3.72;;
46717;SDS011;32448;44.960;-0.698;2022-12-20T15:13:43;7.57;;;2.70;;
46717;SDS011;32448;44.960;-0.698;2022-12-20T15:16:14;7.60;;;2.50;;
46717;SDS011;32448;44.960;-0.698;2022-12-20T15:18:42;7.90;;;2.58;;
46717;SDS011;32448;44.960;-0.698;2022-12-20T15:21:13;8.27;;;3.08;;
46717;SDS011;32448;44.960;-0.698;2022-12-20T15:23:53;7.03;;;3.15;;
46717;SDS011;32448;44.960;-0.698;2022-12-20T15:26:22;18.80;;;5.53;;
46717;SDS011;32448;44.960;-0.698;2022-12-20T15:28:51;8.52;;;3.13;;
46717;SDS011;32448;44.960;-0.698;2022-12-20T15:31:20;9.05;;;2.88;;
46717;SDS011;32448;44.960;-0.698;2022-12-20T15:33:58;7.65;;;2.47;;
46717;SDS011;32448;44.960;-0.698;2022-12-20T15:36:28;8.35;;;2.80;;
46717;SDS011;32448;44.960;-0.698;2022-12-20T15:38:57;8.57;;;2.58;;
46717;SDS011;32448;44.960;-0.698;2022-12-20T15:41:45;7.10;;;2.33;;
46717;SDS011;32448;44.960;-0.698;2022-12-20T15:44:22;8.13;;;2.95;;
46717;SDS011;32448;44.960;-0.698;2022-12-20T15:46:51;9.32;;;2.83;;
46717;SDS011;32448;44.960;-0.698;2022-12-20T15:49:23;5.97;;;2.40;;
46717;SDS011;32448;44.960;-0.698;2022-12-20T15:51:54;7.60;;;2.38;;
46717;SDS011;32448;44.960;-0.698;2022-12-20T15:54:26;8.65;;;3.00;;
46717;SDS011;32448;44.960;-0.698;2022-12-20T15:57:04;13.38;;;4.70;;
46717;SDS011;32448;44.960;-0.698;2022-12-20T15:59:36;10.60;;;4.43;;
46717;SDS011;32448;44.960;-0.698;2022-12-20T16:02:24;35.78;;;15.05;;
46717;SDS011;32448;44.960;-0.698;2022-12-20T16:04:53;22.75;;;10.00;;
46717;SDS011;32448;44.960;-0.698;2022-12-20T16:07:21;16.15;;;5.28;;
46717;SDS011;32448;44.960;-0.698;2022-12-20T16:09:49;8.65;;;3.17;;
46717;SDS011;32448;44.960;-0.698;2022-12-20T16:12:17;8.80;;;3.72;;
46717;SDS011;32448;44.960;-0.698;2022-12-20T16:14:49;10.73;;;3.28;;
46717;SDS011;32448;44.960;-0.698;2022-12-20T16:17:17;6.55;;;3.08;;
46717;SDS011;32448;44.960;-0.698;2022-12-20T16:19:44;14.30;;;3.97;;
46717;SDS011;32448;44.960;-0.698;2022-12-20T16:22:16;10.30;;;4.93;;
46717;SDS011;32448;44.960;-0.698;2022-12-20T16:24:46;10.85;;;5.00;;
46717;SDS011;32448;44.960;-0.698;2022-12-20T16:27:14;11.18;;;3.83;;
46717;SDS011;32448;44.960;-0.698;2022-12-20T16:29:41;8.88;;;3.67;;
46717;SDS011;32448;44.960;-0.698;2022-12-20T16:32:16;8.60;;;3.75;;
46717;SDS011;32448;44.960;-0.698;2022-12-20T16:34:44;7.72;;;3.55;;
46717;SDS011;32448;44.960;-0.698;2022-12-20T16:37:12;9.90;;;4.38;;
46717;SDS011;32448;44.960;-0.698;2022-12-20T16:39:40;25.15;;;9.60;;
46717;SDS011;32448;44.960;-0.698;2022-12-20T16:42:10;33.05;;;14.48;;
46717;SDS011;32448;44.960;-0.698;2022-12-20T16:44:43;29.08;;;14.30;;
46717;SDS011;32448;44.960;-0.698;2022-12-20T16:47:12;30.52;;;16.10;;
46717;SDS011;32448;44.960;-0.698;2022-12-20T16:49:40;38.10;;;16.90;;
46717;SDS011;32448;44.960;-0.698;2022-12-20T16:52:17;31.35;;;14.55;;
46717;SDS011;32448;44.960;-0.698;2022-12-20T16:54:46;35.72;;;15.70;;
46717;SDS011;32448;44.960;-0.698;2022-12-20T16:57:14;48.53;;;21.27;;
46717;SDS011;32448;44.960;-0.698;2022-12-20T16:59:41;29.05;;;12.80;;
46717;SDS011;32448;44.960;-0.698;2022-12-20T17:02:20;17.70;;;6.68;;
46717;SDS011;32448;44.960;-0.698;2022-12-20T17:04:52;26.90;;;13.73;;
46717;SDS011;32448;44.960;-0.698;2022-12-20T17:07:22;25.77;;;15.27;;
46717;SDS011;32448;44.960;-0.698;2022-12-20T17:09:50;17.80;;;9.73;;